Time,TemperatureF,DewpointF,PressureIn,WindDirection,WindDirectionDegrees,WindSpeedMPH,WindSpeedGustMPH,Humidity,HourlyPrecipIn,Conditions,Clouds,dailyrainin,SoftwareType,DateUTC
2013-08-26 00:13:00,75.0,68.0,29.93,NNW,337,0.0,0.0,79,0.00,,,0.00,,2013-08-26 05:13:00,
2013-08-26 00:23:00,74.0,68.0,29.93,NNW,337,0.0,0.0,81,0.00,,,0.00,,2013-08-26 05:23:00,
2013-08-26 00:43:00,73.0,67.0,29.92,NNW,337,0.0,0.0,81,0.00,,,0.00,,2013-08-26 05:43:00,
2013-08-26 00:52:00,73.0,68.0,29.92,NNW,338,0.0,0.0,83,0.00,,,0.00,,2013-08-26 05:52:00,
2013-08-26 01:12:00,73.0,67.0,29.92,NNW,337,0.0,0.0,81,0.00,,,0.00,,2013-08-26 06:12:00,
2013-08-26 01:21:00,73.0,68.0,29.92,NNW,337,0.0,0.0,83,0.00,,,0.00,,2013-08-26 06:21:00,
2013-08-26 01:42:00,72.0,67.0,29.92,NNW,337,0.0,0.0,84,0.00,,,0.00,,2013-08-26 06:42:00,
2013-08-26 01:52:00,72.0,67.0,29.92,West,281,0.0,0.0,85,0.00,,,0.00,,2013-08-26 06:52:00,
2013-08-26 02:11:00,71.0,66.0,29.92,West,274,0.0,0.0,85,0.00,,,0.00,,2013-08-26 07:11:00,
2013-08-26 02:22:00,71.0,67.0,29.92,West,274,0.0,0.0,86,0.00,,,0.00,,2013-08-26 07:22:00,
2013-08-26 02:42:00,70.0,66.0,29.92,West,274,0.0,0.0,88,0.00,,,0.00,,2013-08-26 07:42:00,
2013-08-26 02:52:00,69.0,66.0,29.92,West,274,0.0,0.0,89,0.00,,,0.00,,2013-08-26 07:52:00,
2013-08-26 03:12:00,68.0,65.0,29.92,West,274,0.0,0.0,91,0.00,,,0.00,,2013-08-26 08:12:00,
2013-08-26 03:22:00,68.0,66.0,29.92,West,274,0.0,0.0,92,0.00,,,0.00,,2013-08-26 08:22:00,
2013-08-26 03:42:00,68.0,65.0,29.92,West,274,0.0,0.0,90,0.00,,,0.00,,2013-08-26 08:42:00,
2013-08-26 03:52:00,68.0,65.0,29.92,West,274,0.0,0.0,90,0.00,,,0.00,,2013-08-26 08:52:00,
2013-08-26 04:11:00,67.0,64.0,29.91,West,274,0.0,0.0,90,0.00,,,0.00,,2013-08-26 09:11:00,
2013-08-26 04:21:00,67.0,64.0,29.91,West,274,0.0,0.0,90,0.00,,,0.00,,2013-08-26 09:21:00,
2013-08-26 04:43:00,66.0,64.0,29.91,West,274,0.0,0.0,92,0.00,,,0.00,,2013-08-26 09:43:00,
2013-08-26 04:53:00,65.0,62.0,29.91,SW,222,0.0,0.0,91,0.00,,,0.00,,2013-08-26 09:53:00,
2013-08-26 05:12:00,65.0,63.0,29.92,SW,222,0.0,0.0,92,0.00,,,0.00,,2013-08-26 10:12:00,
2013-08-26 05:23:00,64.0,62.0,29.92,SW,221,0.0,0.0,93,0.00,,,0.00,,2013-08-26 10:23:00,
2013-08-26 05:42:00,65.0,64.0,29.92,SW,222,0.0,0.0,95,0.00,,,0.00,,2013-08-26 10:42:00,
2013-08-26 05:52:00,65.0,63.0,29.93,SW,221,0.0,0.0,94,0.00,,,0.00,,2013-08-26 10:52:00,
2013-08-26 06:12:00,65.0,64.0,29.93,SSW,206,0.0,0.0,95,0.00,,,0.00,,2013-08-26 11:12:00,
2013-08-26 06:22:00,64.0,62.0,29.93,SW,217,0.0,0.0,94,0.00,,,0.00,,2013-08-26 11:22:00,
2013-08-26 06:52:00,64.0,63.0,29.94,SW,232,0.0,0.0,96,0.00,,,0.00,,2013-08-26 11:52:00,
2013-08-26 07:12:00,64.0,63.0,29.94,SW,232,0.0,0.0,95,0.00,,,0.00,,2013-08-26 12:12:00,
2013-08-26 07:21:00,65.0,64.0,29.93,SW,232,0.0,0.0,96,0.00,,,0.00,,2013-08-26 12:21:00,
2013-08-26 07:52:00,66.0,65.0,29.94,North,3,0.0,0.0,95,0.00,,,0.00,,2013-08-26 12:52:00,
2013-08-26 08:11:00,67.0,65.0,29.94,North,360,0.0,0.0,94,0.00,,,0.00,,2013-08-26 13:11:00,
2013-08-26 08:21:00,68.0,66.0,29.94,North,359,0.0,0.0,94,0.00,,,0.00,,2013-08-26 13:21:00,
2013-08-26 08:42:00,70.0,68.0,29.94,North,360,0.0,0.0,93,0.00,,,0.00,,2013-08-26 13:42:00,
2013-08-26 08:52:00,71.0,68.0,29.95,North,11,0.0,0.0,89,0.00,,,0.00,,2013-08-26 13:52:00,
2013-08-26 09:11:00,74.0,70.0,29.95,North,356,0.0,0.0,87,0.00,,,0.00,,2013-08-26 14:11:00,
2013-08-26 09:22:00,77.0,70.0,29.94,East,89,0.0,0.0,79,0.00,,,0.00,,2013-08-26 14:22:00,
2013-08-26 09:42:00,79.0,70.0,29.94,ESE,122,0.0,0.0,75,0.00,,,0.00,,2013-08-26 14:42:00,
2013-08-26 09:52:00,80.0,71.0,29.93,ENE,78,0.0,0.0,73,0.00,,,0.00,,2013-08-26 14:52:00,
2013-08-26 10:12:00,82.0,71.0,29.93,East,85,0.0,0.0,70,0.00,,,0.00,,2013-08-26 15:12:00,
2013-08-26 10:22:00,83.0,72.0,29.93,East,94,0.0,1.0,69,0.00,,,0.00,,2013-08-26 15:22:00,
2013-08-26 10:47:00,84.0,72.0,29.93,ESE,105,0.0,1.0,68,0.00,,,0.00,,2013-08-26 15:47:00,
2013-08-26 10:59:00,85.0,73.0,29.92,ESE,108,0.0,1.0,67,0.00,,,0.00,,2013-08-26 15:59:00,
2013-08-26 11:17:00,85.0,72.0,29.92,ESE,120,0.0,4.0,65,0.00,,,0.00,,2013-08-26 16:17:00,
2013-08-26 11:29:00,86.0,72.0,29.92,East,99,0.0,3.0,64,0.00,,,0.00,,2013-08-26 16:29:00,
2013-08-26 11:48:00,88.0,72.0,29.91,ESE,107,0.0,7.0,60,0.00,,,0.00,,2013-08-26 16:48:00,
2013-08-26 11:59:00,88.0,71.0,29.91,East,81,1.0,6.0,58,0.00,,,0.00,,2013-08-26 16:59:00,
2013-08-26 12:12:00,88.0,70.0,29.91,East,89,0.0,5.0,56,0.00,,,0.00,,2013-08-26 17:12:00,
2013-08-26 12:24:00,88.0,71.0,29.91,ESE,105,0.0,4.0,57,0.00,,,0.00,,2013-08-26 17:24:00,
2013-08-26 12:43:00,88.0,71.0,29.91,East,101,0.0,4.0,57,0.00,,,0.00,,2013-08-26 17:43:00,
2013-08-26 12:53:00,88.0,71.0,29.91,East,91,0.0,1.0,58,0.00,,,0.00,,2013-08-26 17:53:00,
2013-08-26 13:12:00,88.0,71.0,29.91,ESE,106,0.0,1.0,58,0.00,,,0.00,,2013-08-26 18:12:00,
2013-08-26 13:22:00,88.0,72.0,29.91,SE,134,0.0,0.0,60,0.00,,,0.00,,2013-08-26 18:22:00,
2013-08-26 13:52:00,88.0,71.0,29.91,SE,131,0.0,0.0,57,0.00,,,0.00,,2013-08-26 18:52:00,
2013-08-26 14:11:00,87.0,71.0,29.90,SE,134,0.0,0.0,59,0.00,,,0.00,,2013-08-26 19:11:00,
2013-08-26 14:22:00,87.0,71.0,29.90,NW,317,0.0,0.0,59,0.00,,,0.00,,2013-08-26 19:22:00,
2013-08-26 14:42:00,86.0,74.0,29.90,South,176,0.0,0.0,68,0.00,,,0.00,,2013-08-26 19:42:00,
2013-08-26 14:52:00,86.0,73.0,29.90,NNW,340,0.0,0.0,65,0.00,,,0.00,,2013-08-26 19:52:00,
2013-08-26 15:11:00,86.0,74.0,29.89,SSW,211,0.0,1.0,68,0.00,,,0.00,,2013-08-26 20:11:00,
2013-08-26 15:22:00,86.0,73.0,29.89,SSE,161,0.0,0.0,66,0.00,,,0.00,,2013-08-26 20:22:00,
2013-08-26 15:43:00,85.0,73.0,29.89,SW,217,0.0,1.0,68,0.00,,,0.00,,2013-08-26 20:43:00,
2013-08-26 15:52:00,85.0,74.0,29.89,North,5,0.0,0.0,70,0.00,,,0.00,,2013-08-26 20:52:00,
2013-08-26 16:11:00,84.0,75.0,29.89,NNE,32,0.0,0.0,74,0.00,,,0.00,,2013-08-26 21:11:00,
2013-08-26 16:22:00,84.0,74.0,29.89,SE,142,0.0,0.0,72,0.00,,,0.00,,2013-08-26 21:22:00,
2013-08-26 16:55:00,82.0,75.0,29.88,South,191,0.0,0.0,80,0.00,,,0.00,,2013-08-26 21:55:00,
2013-08-26 17:16:00,81.0,74.0,29.89,SSW,200,0.0,0.0,80,0.00,,,0.00,,2013-08-26 22:16:00,
2013-08-26 17:26:00,79.0,73.0,29.90,SSW,205,0.0,0.0,83,0.00,,,0.00,,2013-08-26 22:26:00,
2013-08-26 17:42:00,77.0,69.0,29.90,SSW,212,0.0,0.0,77,0.02,,,0.02,,2013-08-26 22:42:00,
2013-08-26 18:12:00,75.0,68.0,29.88,SSE,148,0.0,1.0,78,0.02,,,0.02,,2013-08-26 23:12:00,
2013-08-26 18:22:00,75.0,69.0,29.88,SSW,193,0.0,3.0,82,0.02,,,0.02,,2013-08-26 23:22:00,
2013-08-26 18:52:00,73.0,69.0,29.87,SW,214,0.0,0.0,87,0.04,,,0.06,,2013-08-26 23:52:00,
2013-08-26 19:11:00,73.0,69.0,29.86,NNE,13,0.0,2.0,88,0.04,,,0.06,,2013-08-27 00:11:00,
2013-08-26 19:21:00,74.0,70.0,29.85,North,358,0.0,0.0,87,0.03,,,0.06,,2013-08-27 00:21:00,
2013-08-26 19:42:00,74.0,70.0,29.85,SSW,207,0.0,0.0,86,0.01,,,0.06,,2013-08-27 00:42:00,
2013-08-26 19:52:00,73.0,69.0,29.85,WSW,242,0.0,0.0,88,0.01,,,0.07,,2013-08-27 00:52:00,
2013-08-26 20:12:00,73.0,70.0,29.85,NNW,336,0.0,0.0,91,0.01,,,0.07,,2013-08-27 01:12:00,
2013-08-26 20:22:00,72.0,70.0,29.85,West,278,0.0,0.0,92,0.01,,,0.07,,2013-08-27 01:22:00,
2013-08-26 20:42:00,72.0,70.0,29.86,SSW,205,0.0,0.0,93,0.01,,,0.07,,2013-08-27 01:42:00,
2013-08-26 20:52:00,71.0,69.0,29.86,SSE,163,0.0,0.0,93,0.00,,,0.07,,2013-08-27 01:52:00,
2013-08-26 21:12:00,71.0,69.0,29.86,SSE,164,0.0,0.0,92,0.00,,,0.07,,2013-08-27 02:12:00,
2013-08-26 21:21:00,71.0,69.0,29.85,SSE,148,0.0,0.0,93,0.00,,,0.07,,2013-08-27 02:21:00,
2013-08-26 21:42:00,70.0,68.0,29.86,ESE,103,0.0,0.0,94,0.00,,,0.07,,2013-08-27 02:42:00,
2013-08-26 21:52:00,70.0,68.0,29.87,ESE,104,0.0,0.0,94,0.00,,,0.07,,2013-08-27 02:52:00,
2013-08-26 22:12:00,69.0,67.0,29.87,ENE,75,0.0,0.0,94,0.00,,,0.07,,2013-08-27 03:12:00,
2013-08-26 22:22:00,69.0,68.0,29.88,ENE,75,0.0,0.0,95,0.00,,,0.07,,2013-08-27 03:22:00,
2013-08-26 22:44:00,69.0,68.0,29.87,ENE,75,0.0,0.0,95,0.00,,,0.07,,2013-08-27 03:44:00,
2013-08-26 22:58:00,69.0,68.0,29.86,ENE,76,0.0,0.0,95,0.00,,,0.07,,2013-08-27 03:58:00,
2013-08-26 23:18:00,68.0,66.0,29.86,SW,225,0.0,0.0,94,0.00,,,0.07,,2013-08-27 04:18:00,
2013-08-26 23:47:00,67.0,66.0,29.86,ESE,117,0.0,0.0,95,0.00,,,0.07,,2013-08-27 04:47:00,
2013-08-26 23:54:00,67.0,66.0,29.85,SE,136,0.0,0.0,96,0.00,,,0.07,,2013-08-27 04:54:00,